sensor_id;sensor_type;location;lat;lon;timestamp;P1;durP1;ratioP1;P2;durP2;ratioP2
61317;SDS011;47201;40.428;-8.436;2022-09-28T00:00:12;76.43;;;12.13;;
61317;SDS011;47201;40.428;-8.436;2022-09-28T00:02:13;62.50;;;11.63;;
61317;SDS011;47201;40.428;-8.436;2022-09-28T00:04:14;60.60;;;10.80;;
61317;SDS011;47201;40.428;-8.436;2022-09-28T00:06:15;53.70;;;9.27;;
61317;SDS011;47201;40.428;-8.436;2022-09-28T00:08:21;51.22;;;10.32;;
61317;SDS011;47201;40.428;-8.436;2022-09-28T00:10:22;62.75;;;9.88;;
61317;SDS011;47201;40.428;-8.436;2022-09-28T00:12:23;71.15;;;11.05;;
61317;SDS011;47201;40.428;-8.436;2022-09-28T00:14:24;61.58;;;10.88;;
61317;SDS011;47201;40.428;-8.436;2022-09-28T00:16:26;55.42;;;10.95;;
61317;SDS011;47201;40.428;-8.436;2022-09-28T00:18:29;71.30;;;10.88;;
61317;SDS011;47201;40.428;-8.436;2022-09-28T00:20:30;65.70;;;11.18;;
61317;SDS011;47201;40.428;-8.436;2022-09-28T00:22:31;78.03;;;12.02;;
61317;SDS011;47201;40.428;-8.436;2022-09-28T00:24:31;62.72;;;10.57;;
61317;SDS011;47201;40.428;-8.436;2022-09-28T00:26:32;48.92;;;9.38;;
61317;SDS011;47201;40.428;-8.436;2022-09-28T00:28:33;58.30;;;11.07;;
61317;SDS011;47201;40.428;-8.436;2022-09-28T00:30:34;59.20;;;10.52;;
61317;SDS011;47201;40.428;-8.436;2022-09-28T00:32:34;86.03;;;12.02;;
61317;SDS011;47201;40.428;-8.436;2022-09-28T00:34:36;73.38;;;11.70;;
61317;SDS011;47201;40.428;-8.436;2022-09-28T00:36:45;64.10;;;11.02;;
61317;SDS011;47201;40.428;-8.436;2022-09-28T00:38:47;69.90;;;11.32;;
61317;SDS011;47201;40.428;-8.436;2022-09-28T00:40:51;78.47;;;11.50;;
61317;SDS011;47201;40.428;-8.436;2022-09-28T00:42:52;76.07;;;12.90;;
61317;SDS011;47201;40.428;-8.436;2022-09-28T00:44:53;72.82;;;12.63;;
61317;SDS011;47201;40.428;-8.436;2022-09-28T00:49:30;81.25;;;14.32;;
61317;SDS011;47201;40.428;-8.436;2022-09-28T00:51:37;76.35;;;14.45;;
61317;SDS011;47201;40.428;-8.436;2022-09-28T00:53:41;46.97;;;12.13;;
61317;SDS011;47201;40.428;-8.436;2022-09-28T00:55:45;63.50;;;13.88;;
61317;SDS011;47201;40.428;-8.436;2022-09-28T00:57:56;74.15;;;13.93;;
61317;SDS011;47201;40.428;-8.436;2022-09-28T01:00:00;90.35;;;15.55;;
61317;SDS011;47201;40.428;-8.436;2022-09-28T01:02:02;70.40;;;13.00;;
61317;SDS011;47201;40.428;-8.436;2022-09-28T01:04:03;74.95;;;14.43;;
61317;SDS011;47201;40.428;-8.436;2022-09-28T01:06:05;60.28;;;14.10;;
61317;SDS011;47201;40.428;-8.436;2022-09-28T01:08:08;87.38;;;16.48;;
61317;SDS011;47201;40.428;-8.436;2022-09-28T01:10:10;58.05;;;13.95;;
61317;SDS011;47201;40.428;-8.436;2022-09-28T01:12:11;77.93;;;16.27;;
61317;SDS011;47201;40.428;-8.436;2022-09-28T01:14:12;85.88;;;17.45;;
61317;SDS011;47201;40.428;-8.436;2022-09-28T01:16:27;63.95;;;16.80;;
61317;SDS011;47201;40.428;-8.436;2022-09-28T01:21:24;117.55;;;31.80;;
61317;SDS011;47201;40.428;-8.436;2022-09-28T01:23:31;125.63;;;34.05;;
61317;SDS011;47201;40.428;-8.436;2022-09-28T01:25:44;147.77;;;38.47;;
61317;SDS011;47201;40.428;-8.436;2022-09-28T01:27:51;156.13;;;40.55;;
61317;SDS011;47201;40.428;-8.436;2022-09-28T01:30:29;154.73;;;39.72;;
61317;SDS011;47201;40.428;-8.436;2022-09-28T01:35:04;128.80;;;36.38;;
61317;SDS011;47201;40.428;-8.436;2022-09-28T01:37:12;91.72;;;26.08;;
61317;SDS011;47201;40.428;-8.436;2022-09-28T01:39:20;84.18;;;22.58;;
61317;SDS011;47201;40.428;-8.436;2022-09-28T01:41:29;72.35;;;19.42;;
61317;SDS011;47201;40.428;-8.436;2022-09-28T01:43:38;76.55;;;23.65;;
61317;SDS011;47201;40.428;-8.436;2022-09-28T01:45:47;75.65;;;20.20;;
61317;SDS011;47201;40.428;-8.436;2022-09-28T01:47:50;84.72;;;19.80;;
61317;SDS011;47201;40.428;-8.436;2022-09-28T01:50:01;77.93;;;20.88;;
61317;SDS011;47201;40.428;-8.436;2022-09-28T01:52:14;88.88;;;21.33;;
61317;SDS011;47201;40.428;-8.436;2022-09-28T01:54:21;90.25;;;24.00;;
61317;SDS011;47201;40.428;-8.436;2022-09-28T01:56:47;94.78;;;27.15;;
61317;SDS011;47201;40.428;-8.436;2022-09-28T01:59:14;120.95;;;33.13;;
61317;SDS011;47201;40.428;-8.436;2022-09-28T02:01:23;107.45;;;29.92;;
61317;SDS011;47201;40.428;-8.436;2022-09-28T02:03:33;93.35;;;27.20;;
61317;SDS011;47201;40.428;-8.436;2022-09-28T02:05:41;122.30;;;27.55;;
61317;SDS011;47201;40.428;-8.436;2022-09-28T02:08:08;120.55;;;30.80;;
61317;SDS011;47201;40.428;-8.436;2022-09-28T02:10:29;100.65;;;26.75;;
61317;SDS011;47201;40.428;-8.436;2022-09-28T02:12:36;100.07;;;24.77;;
61317;SDS011;47201;40.428;-8.436;2022-09-28T02:14:42;83.80;;;23.27;;
61317;SDS011;47201;40.428;-8.436;2022-09-28T02:16:49;86.35;;;23.25;;
61317;SDS011;47201;40.428;-8.436;2022-09-28T02:19:02;77.45;;;22.17;;
61317;SDS011;47201;40.428;-8.436;2022-09-28T02:21:11;87.88;;;22.20;;
61317;SDS011;47201;40.428;-8.436;2022-09-28T02:23:15;74.97;;;20.73;;
61317;SDS011;47201;40.428;-8.436;2022-09-28T02:27:20;84.90;;;21.65;;
61317;SDS011;47201;40.428;-8.436;2022-09-28T02:29:30;83.35;;;21.65;;
61317;SDS011;47201;40.428;-8.436;2022-09-28T02:31:32;121.10;;;23.00;;
61317;SDS011;47201;40.428;-8.436;2022-09-28T02:33:34;113.82;;;21.63;;
61317;SDS011;47201;40.428;-8.436;2022-09-28T02:35:38;98.75;;;20.95;;
61317;SDS011;47201;40.428;-8.436;2022-09-28T02:37:40;93.90;;;20.23;;
61317;SDS011;47201;40.428;-8.436;2022-09-28T02:39:42;106.25;;;22.92;;
61317;SDS011;47201;40.428;-8.436;2022-09-28T02:41:51;74.35;;;18.05;;
61317;SDS011;47201;40.428;-8.436;2022-09-28T02:54:04;95.93;;;19.67;;
61317;SDS011;47201;40.428;-8.436;2022-09-28T03:04:04;116.88;;;22.00;;
61317;SDS011;47201;40.428;-8.436;2022-09-28T03:09:03;117.18;;;22.73;;
61317;SDS011;47201;40.428;-8.436;2022-09-28T03:11:44;121.50;;;22.80;;
61317;SDS011;47201;40.428;-8.436;2022-09-28T03:13:41;96.40;;;19.75;;
61317;SDS011;47201;40.428;-8.436;2022-09-28T03:15:43;131.23;;;22.42;;
61317;SDS011;47201;40.428;-8.436;2022-09-28T03:17:44;116.25;;;23.33;;
61317;SDS011;47201;40.428;-8.436;2022-09-28T03:19:47;89.40;;;19.15;;
61317;SDS011;47201;40.428;-8.436;2022-09-28T03:21:48;75.22;;;18.67;;
61317;SDS011;47201;40.428;-8.436;2022-09-28T03:23:49;83.25;;;20.77;;
61317;SDS011;47201;40.428;-8.436;2022-09-28T03:27:50;135.57;;;27.60;;
61317;SDS011;47201;40.428;-8.436;2022-09-28T03:29:51;127.82;;;27.05;;
61317;SDS011;47201;40.428;-8.436;2022-09-28T03:31:52;113.20;;;26.85;;
61317;SDS011;47201;40.428;-8.436;2022-09-28T03:33:53;104.65;;;22.80;;
61317;SDS011;47201;40.428;-8.436;2022-09-28T03:35:53;88.65;;;21.17;;
61317;SDS011;47201;40.428;-8.436;2022-09-28T03:37:54;115.28;;;22.80;;
61317;SDS011;47201;40.428;-8.436;2022-09-28T03:39:56;96.90;;;23.15;;
61317;SDS011;47201;40.428;-8.436;2022-09-28T03:41:59;132.68;;;24.27;;
61317;SDS011;47201;40.428;-8.436;2022-09-28T03:44:00;95.38;;;20.30;;
61317;SDS011;47201;40.428;-8.436;2022-09-28T03:46:03;103.28;;;21.02;;
61317;SDS011;47201;40.428;-8.436;2022-09-28T03:48:07;90.53;;;21.50;;
61317;SDS011;47201;40.428;-8.436;2022-09-28T03:50:08;89.18;;;19.65;;
61317;SDS011;47201;40.428;-8.436;2022-09-28T03:52:09;107.05;;;21.08;;
61317;SDS011;47201;40.428;-8.436;2022-09-28T03:54:11;101.22;;;21.65;;
61317;SDS011;47201;40.428;-8.436;2022-09-28T03:56:13;100.53;;;20.27;;
61317;SDS011;47201;40.428;-8.436;2022-09-28T03:58:15;125.60;;;22.60;;
61317;SDS011;47201;40.428;-8.436;2022-09-28T04:00:17;101.80;;;20.73;;
61317;SDS011;47201;40.428;-8.436;2022-09-28T04:02:17;114.47;;;22.52;;
61317;SDS011;47201;40.428;-8.436;2022-09-28T04:04:21;112.80;;;20.73;;
61317;SDS011;47201;40.428;-8.436;2022-09-28T04:06:25;111.68;;;20.65;;
61317;SDS011;47201;40.428;-8.436;2022-09-28T04:08:26;114.22;;;21.15;;
61317;SDS011;47201;40.428;-8.436;2022-09-28T04:10:27;119.07;;;22.38;;
61317;SDS011;47201;40.428;-8.436;2022-09-28T04:12:28;96.35;;;19.33;;
61317;SDS011;47201;40.428;-8.436;2022-09-28T04:14:29;118.22;;;20.65;;
61317;SDS011;47201;40.428;-8.436;2022-09-28T04:16:29;101.47;;;20.60;;
61317;SDS011;47201;40.428;-8.436;2022-09-28T04:23:05;82.30;;;17.58;;
61317;SDS011;47201;40.428;-8.436;2022-09-28T04:25:06;104.60;;;19.85;;
61317;SDS011;47201;40.428;-8.436;2022-09-28T04:27:07;101.03;;;18.38;;
61317;SDS011;47201;40.428;-8.436;2022-09-28T04:29:27;93.22;;;17.95;;
61317;SDS011;47201;40.428;-8.436;2022-09-28T04:31:29;104.32;;;19.88;;
61317;SDS011;47201;40.428;-8.436;2022-09-28T04:33:36;71.43;;;16.02;;
61317;SDS011;47201;40.428;-8.436;2022-09-28T04:37:38;98.20;;;17.20;;
61317;SDS011;47201;40.428;-8.436;2022-09-28T04:39:39;73.20;;;15.45;;
61317;SDS011;47201;40.428;-8.436;2022-09-28T04:41:41;95.15;;;15.90;;
61317;SDS011;47201;40.428;-8.436;2022-09-28T04:43:42;78.90;;;15.70;;
61317;SDS011;47201;40.428;-8.436;2022-09-28T04:45:43;89.68;;;16.15;;
61317;SDS011;47201;40.428;-8.436;2022-09-28T04:47:45;84.28;;;15.07;;
61317;SDS011;47201;40.428;-8.436;2022-09-28T04:49:55;92.13;;;18.05;;
61317;SDS011;47201;40.428;-8.436;2022-09-28T04:52:05;106.43;;;17.70;;
61317;SDS011;47201;40.428;-8.436;2022-09-28T04:54:08;82.38;;;15.18;;
61317;SDS011;47201;40.428;-8.436;2022-09-28T04:56:12;100.90;;;17.35;;
61317;SDS011;47201;40.428;-8.436;2022-09-28T04:58:14;84.45;;;15.38;;
61317;SDS011;47201;40.428;-8.436;2022-09-28T05:00:15;92.97;;;16.55;;
61317;SDS011;47201;40.428;-8.436;2022-09-28T05:02:27;99.15;;;17.70;;
61317;SDS011;47201;40.428;-8.436;2022-09-28T05:04:37;125.22;;;20.50;;
61317;SDS011;47201;40.428;-8.436;2022-09-28T05:06:44;79.93;;;17.05;;
61317;SDS011;47201;40.428;-8.436;2022-09-28T05:08:46;90.40;;;17.63;;
61317;SDS011;47201;40.428;-8.436;2022-09-28T05:10:47;91.80;;;19.42;;
61317;SDS011;47201;40.428;-8.436;2022-09-28T05:12:51;118.40;;;23.25;;
61317;SDS011;47201;40.428;-8.436;2022-09-28T05:14:52;89.45;;;18.67;;
61317;SDS011;47201;40.428;-8.436;2022-09-28T05:16:53;113.40;;;19.63;;
61317;SDS011;47201;40.428;-8.436;2022-09-28T05:18:59;83.40;;;18.15;;
61317;SDS011;47201;40.428;-8.436;2022-09-28T05:21:00;91.40;;;17.92;;
61317;SDS011;47201;40.428;-8.436;2022-09-28T05:23:01;110.07;;;24.08;;
61317;SDS011;47201;40.428;-8.436;2022-09-28T05:25:01;115.55;;;24.05;;
61317;SDS011;47201;40.428;-8.436;2022-09-28T05:27:09;123.05;;;27.17;;
61317;SDS011;47201;40.428;-8.436;2022-09-28T05:29:10;108.75;;;28.63;;
61317;SDS011;47201;40.428;-8.436;2022-09-28T05:31:29;133.45;;;30.13;;
61317;SDS011;47201;40.428;-8.436;2022-09-28T05:33:40;134.63;;;32.42;;
61317;SDS011;47201;40.428;-8.436;2022-09-28T05:35:46;147.63;;;35.13;;
61317;SDS011;47201;40.428;-8.436;2022-09-28T05:37:47;149.52;;;36.47;;
61317;SDS011;47201;40.428;-8.436;2022-09-28T05:39:51;177.63;;;37.38;;
61317;SDS011;47201;40.428;-8.436;2022-09-28T05:41:53;192.90;;;38.30;;
61317;SDS011;47201;40.428;-8.436;2022-09-28T05:43:55;195.20;;;38.97;;
61317;SDS011;47201;40.428;-8.436;2022-09-28T05:45:57;183.38;;;37.53;;
61317;SDS011;47201;40.428;-8.436;2022-09-28T05:47:59;181.57;;;38.70;;
61317;SDS011;47201;40.428;-8.436;2022-09-28T05:52:01;198.70;;;39.67;;
61317;SDS011;47201;40.428;-8.436;2022-09-28T05:54:04;167.77;;;38.33;;
61317;SDS011;47201;40.428;-8.436;2022-09-28T05:56:05;152.57;;;36.10;;
61317;SDS011;47201;40.428;-8.436;2022-09-28T05:58:09;170.85;;;39.85;;
61317;SDS011;47201;40.428;-8.436;2022-09-28T06:00:10;112.97;;;31.90;;
61317;SDS011;47201;40.428;-8.436;2022-09-28T06:02:15;126.25;;;33.83;;
61317;SDS011;47201;40.428;-8.436;2022-09-28T06:04:17;121.93;;;31.38;;
61317;SDS011;47201;40.428;-8.436;2022-09-28T06:06:22;110.28;;;30.10;;
61317;SDS011;47201;40.428;-8.436;2022-09-28T06:08:23;114.88;;;30.73;;
61317;SDS011;47201;40.428;-8.436;2022-09-28T06:10:32;103.13;;;29.20;;
61317;SDS011;47201;40.428;-8.436;2022-09-28T06:12:34;88.32;;;26.20;;
61317;SDS011;47201;40.428;-8.436;2022-09-28T06:14:40;88.43;;;27.48;;
61317;SDS011;47201;40.428;-8.436;2022-09-28T06:16:41;86.13;;;25.25;;
61317;SDS011;47201;40.428;-8.436;2022-09-28T06:18:43;98.03;;;27.35;;
61317;SDS011;47201;40.428;-8.436;2022-09-28T06:20:47;96.63;;;27.25;;
61317;SDS011;47201;40.428;-8.436;2022-09-28T06:22:53;73.55;;;24.92;;
61317;SDS011;47201;40.428;-8.436;2022-09-28T06:24:53;83.85;;;24.05;;
61317;SDS011;47201;40.428;-8.436;2022-09-28T06:26:54;71.18;;;24.20;;
61317;SDS011;47201;40.428;-8.436;2022-09-28T06:28:55;73.72;;;23.15;;
61317;SDS011;47201;40.428;-8.436;2022-09-28T06:30:58;76.47;;;24.23;;
61317;SDS011;47201;40.428;-8.436;2022-09-28T06:33:01;83.43;;;23.05;;
61317;SDS011;47201;40.428;-8.436;2022-09-28T06:35:02;90.07;;;23.13;;
61317;SDS011;47201;40.428;-8.436;2022-09-28T06:37:03;65.53;;;22.25;;
61317;SDS011;47201;40.428;-8.436;2022-09-28T06:39:05;73.70;;;20.70;;
61317;SDS011;47201;40.428;-8.436;2022-09-28T06:41:08;54.63;;;19.65;;
61317;SDS011;47201;40.428;-8.436;2022-09-28T06:43:12;62.53;;;21.40;;
61317;SDS011;47201;40.428;-8.436;2022-09-28T06:45:35;77.63;;;21.88;;
61317;SDS011;47201;40.428;-8.436;2022-09-28T06:47:58;64.28;;;20.73;;
61317;SDS011;47201;40.428;-8.436;2022-09-28T06:50:08;50.83;;;18.43;;
61317;SDS011;47201;40.428;-8.436;2022-09-28T06:52:40;46.72;;;17.92;;
61317;SDS011;47201;40.428;-8.436;2022-09-28T06:54:50;53.25;;;19.05;;
61317;SDS011;47201;40.428;-8.436;2022-09-28T06:57:03;59.25;;;19.45;;
61317;SDS011;47201;40.428;-8.436;2022-09-28T06:59:04;45.40;;;17.25;;
61317;SDS011;47201;40.428;-8.436;2022-09-28T07:01:05;53.30;;;18.90;;
61317;SDS011;47201;40.428;-8.436;2022-09-28T07:03:29;54.50;;;19.63;;
61317;SDS011;47201;40.428;-8.436;2022-09-28T07:05:48;46.53;;;19.02;;
61317;SDS011;47201;40.428;-8.436;2022-09-28T07:08:27;42.05;;;17.58;;
61317;SDS011;47201;40.428;-8.436;2022-09-28T07:10:45;39.25;;;17.42;;
61317;SDS011;47201;40.428;-8.436;2022-09-28T07:12:56;39.20;;;16.45;;
61317;SDS011;47201;40.428;-8.436;2022-09-28T07:15:08;51.63;;;18.65;;
61317;SDS011;47201;40.428;-8.436;2022-09-28T07:17:09;34.95;;;16.55;;
61317;SDS011;47201;40.428;-8.436;2022-09-28T07:19:11;41.75;;;17.83;;
61317;SDS011;47201;40.428;-8.436;2022-09-28T07:21:12;34.53;;;16.25;;
61317;SDS011;47201;40.428;-8.436;2022-09-28T07:25:32;39.95;;;18.23;;
61317;SDS011;47201;40.428;-8.436;2022-09-28T07:27:58;43.28;;;18.13;;
61317;SDS011;47201;40.428;-8.436;2022-09-28T07:30:26;34.63;;;16.40;;
61317;SDS011;47201;40.428;-8.436;2022-09-28T07:32:52;47.75;;;17.08;;
61317;SDS011;47201;40.428;-8.436;2022-09-28T07:35:03;42.35;;;16.58;;
61317;SDS011;47201;40.428;-8.436;2022-09-28T07:37:27;37.28;;;15.75;;
61317;SDS011;47201;40.428;-8.436;2022-09-28T07:39:28;34.10;;;15.75;;
61317;SDS011;47201;40.428;-8.436;2022-09-28T07:41:29;23.92;;;12.45;;
61317;SDS011;47201;40.428;-8.436;2022-09-28T07:43:35;28.38;;;13.88;;
61317;SDS011;47201;40.428;-8.436;2022-09-28T07:45:39;33.97;;;14.25;;
61317;SDS011;47201;40.428;-8.436;2022-09-28T07:47:42;28.42;;;14.35;;
61317;SDS011;47201;40.428;-8.436;2022-09-28T07:49:46;28.42;;;14.38;;
61317;SDS011;47201;40.428;-8.436;2022-09-28T07:52:10;34.97;;;15.52;;
61317;SDS011;47201;40.428;-8.436;2022-09-28T07:54:31;36.63;;;15.32;;
61317;SDS011;47201;40.428;-8.436;2022-09-28T07:57:10;32.47;;;15.13;;
61317;SDS011;47201;40.428;-8.436;2022-09-28T07:59:24;38.38;;;16.52;;
61317;SDS011;47201;40.428;-8.436;2022-09-28T08:01:46;46.08;;;17.60;;
61317;SDS011;47201;40.428;-8.436;2022-09-28T08:03:48;39.67;;;17.05;;
61317;SDS011;47201;40.428;-8.436;2022-09-28T08:05:49;46.20;;;18.33;;
61317;SDS011;47201;40.428;-8.436;2022-09-28T08:07:50;44.35;;;18.30;;
61317;SDS011;47201;40.428;-8.436;2022-09-28T08:09:52;33.30;;;16.75;;
61317;SDS011;47201;40.428;-8.436;2022-09-28T08:12:02;36.33;;;16.85;;
61317;SDS011;47201;40.428;-8.436;2022-09-28T08:14:24;43.22;;;17.98;;
61317;SDS011;47201;40.428;-8.436;2022-09-28T08:16:46;38.42;;;16.80;;
61317;SDS011;47201;40.428;-8.436;2022-09-28T08:18:55;37.65;;;18.45;;
61317;SDS011;47201;40.428;-8.436;2022-09-28T08:20:56;43.05;;;19.38;;
61317;SDS011;47201;40.428;-8.436;2022-09-28T08:23:16;37.50;;;17.25;;
61317;SDS011;47201;40.428;-8.436;2022-09-28T08:25:17;37.10;;;16.48;;
61317;SDS011;47201;40.428;-8.436;2022-09-28T08:29:18;29.93;;;12.17;;
61317;SDS011;47201;40.428;-8.436;2022-09-28T08:31:25;36.83;;;11.80;;
61317;SDS011;47201;40.428;-8.436;2022-09-28T08:34:01;35.33;;;12.05;;
61317;SDS011;47201;40.428;-8.436;2022-09-28T08:36:21;23.17;;;8.27;;
61317;SDS011;47201;40.428;-8.436;2022-09-28T08:38:47;21.90;;;7.18;;
61317;SDS011;47201;40.428;-8.436;2022-09-28T08:43:59;23.73;;;7.63;;
61317;SDS011;47201;40.428;-8.436;2022-09-28T08:46:36;31.27;;;8.90;;
61317;SDS011;47201;40.428;-8.436;2022-09-28T08:49:17;26.10;;;8.45;;
61317;SDS011;47201;40.428;-8.436;2022-09-28T08:51:50;22.70;;;6.93;;
61317;SDS011;47201;40.428;-8.436;2022-09-28T08:58:49;14.05;;;4.93;;
61317;SDS011;47201;40.428;-8.436;2022-09-28T09:00:56;19.73;;;4.97;;
61317;SDS011;47201;40.428;-8.436;2022-09-28T09:03:01;22.38;;;5.07;;
61317;SDS011;47201;40.428;-8.436;2022-09-28T09:07:44;20.00;;;3.85;;
61317;SDS011;47201;40.428;-8.436;2022-09-28T09:15:14;17.15;;;5.35;;
61317;SDS011;47201;40.428;-8.436;2022-09-28T09:20:36;20.48;;;4.68;;
61317;SDS011;47201;40.428;-8.436;2022-09-28T09:23:15;18.90;;;5.00;;
61317;SDS011;47201;40.428;-8.436;2022-09-28T09:27:42;22.55;;;5.20;;
61317;SDS011;47201;40.428;-8.436;2022-09-28T09:50:38;11.73;;;3.60;;
61317;SDS011;47201;40.428;-8.436;2022-09-28T09:52:51;9.43;;;3.08;;
61317;SDS011;47201;40.428;-8.436;2022-09-28T09:54:58;15.73;;;3.67;;
61317;SDS011;47201;40.428;-8.436;2022-09-28T09:57:16;8.25;;;3.15;;
61317;SDS011;47201;40.428;-8.436;2022-09-28T09:59:37;8.20;;;3.40;;
61317;SDS011;47201;40.428;-8.436;2022-09-28T10:01:50;8.35;;;2.80;;
61317;SDS011;47201;40.428;-8.436;2022-09-28T10:04:31;10.90;;;3.33;;
61317;SDS011;47201;40.428;-8.436;2022-09-28T10:06:45;5.78;;;3.13;;
61317;SDS011;47201;40.428;-8.436;2022-09-28T10:09:31;11.80;;;3.10;;
61317;SDS011;47201;40.428;-8.436;2022-09-28T10:11:50;14.77;;;3.97;;
61317;SDS011;47201;40.428;-8.436;2022-09-28T10:13:52;8.77;;;2.97;;
61317;SDS011;47201;40.428;-8.436;2022-09-28T10:16:11;12.02;;;2.97;;
61317;SDS011;47201;40.428;-8.436;2022-09-28T10:18:21;13.75;;;3.00;;
61317;SDS011;47201;40.428;-8.436;2022-09-28T10:20:41;11.05;;;3.40;;
61317;SDS011;47201;40.428;-8.436;2022-09-28T10:23:05;5.80;;;2.50;;
61317;SDS011;47201;40.428;-8.436;2022-09-28T10:25:15;9.23;;;3.30;;
61317;SDS011;47201;40.428;-8.436;2022-09-28T10:27:18;7.00;;;2.25;;
61317;SDS011;47201;40.428;-8.436;2022-09-28T10:29:25;11.73;;;2.78;;
61317;SDS011;47201;40.428;-8.436;2022-09-28T10:34:01;8.98;;;2.70;;
61317;SDS011;47201;40.428;-8.436;2022-09-28T10:36:03;12.13;;;3.25;;
61317;SDS011;47201;40.428;-8.436;2022-09-28T10:38:13;10.00;;;3.30;;
61317;SDS011;47201;40.428;-8.436;2022-09-28T10:42:33;11.75;;;3.53;;
61317;SDS011;47201;40.428;-8.436;2022-09-28T10:44:59;13.20;;;4.00;;
61317;SDS011;47201;40.428;-8.436;2022-09-28T10:47:08;20.17;;;4.20;;
61317;SDS011;47201;40.428;-8.436;2022-09-28T10:49:17;17.08;;;4.10;;
61317;SDS011;47201;40.428;-8.436;2022-09-28T10:54:04;13.32;;;3.90;;
61317;SDS011;47201;40.428;-8.436;2022-09-28T10:56:21;9.65;;;3.25;;
61317;SDS011;47201;40.428;-8.436;2022-09-28T10:58:36;14.73;;;3.45;;
61317;SDS011;47201;40.428;-8.436;2022-09-28T11:00:43;14.95;;;4.10;;
61317;SDS011;47201;40.428;-8.436;2022-09-28T11:02:51;9.45;;;3.25;;
61317;SDS011;47201;40.428;-8.436;2022-09-28T11:04:57;11.75;;;3.55;;
61317;SDS011;47201;40.428;-8.436;2022-09-28T11:07:05;15.15;;;3.25;;
61317;SDS011;47201;40.428;-8.436;2022-09-28T11:09:27;16.08;;;3.30;;
61317;SDS011;47201;40.428;-8.436;2022-09-28T11:11:38;13.00;;;3.20;;
61317;SDS011;47201;40.428;-8.436;2022-09-28T11:13:47;16.73;;;3.47;;
61317;SDS011;47201;40.428;-8.436;2022-09-28T11:15:58;12.00;;;3.60;;
61317;SDS011;47201;40.428;-8.436;2022-09-28T11:18:18;10.95;;;3.25;;
61317;SDS011;47201;40.428;-8.436;2022-09-28T11:20:30;14.43;;;3.03;;
61317;SDS011;47201;40.428;-8.436;2022-09-28T11:22:37;12.48;;;3.38;;
61317;SDS011;47201;40.428;-8.436;2022-09-28T11:24:45;14.25;;;3.33;;
61317;SDS011;47201;40.428;-8.436;2022-09-28T11:26:54;13.48;;;2.88;;
61317;SDS011;47201;40.428;-8.436;2022-09-28T11:28:57;10.88;;;3.10;;
61317;SDS011;47201;40.428;-8.436;2022-09-28T11:31:27;13.77;;;2.85;;
61317;SDS011;47201;40.428;-8.436;2022-09-28T11:33:39;14.63;;;2.80;;
61317;SDS011;47201;40.428;-8.436;2022-09-28T11:41:12;9.93;;;2.95;;
61317;SDS011;47201;40.428;-8.436;2022-09-28T11:49:51;6.60;;;2.30;;
61317;SDS011;47201;40.428;-8.436;2022-09-28T11:51:56;11.57;;;2.63;;
61317;SDS011;47201;40.428;-8.436;2022-09-28T11:54:13;11.52;;;3.08;;
61317;SDS011;47201;40.428;-8.436;2022-09-28T11:58:36;9.25;;;3.13;;
61317;SDS011;47201;40.428;-8.436;2022-09-28T12:00:58;10.45;;;2.75;;
61317;SDS011;47201;40.428;-8.436;2022-09-28T12:03:30;8.40;;;2.92;;
61317;SDS011;47201;40.428;-8.436;2022-09-28T12:06:04;10.52;;;2.80;;
61317;SDS011;47201;40.428;-8.436;2022-09-28T12:08:13;8.32;;;2.35;;
61317;SDS011;47201;40.428;-8.436;2022-09-28T12:10:45;11.35;;;2.60;;
61317;SDS011;47201;40.428;-8.436;2022-09-28T12:13:10;10.55;;;2.92;;
61317;SDS011;47201;40.428;-8.436;2022-09-28T12:15:16;11.65;;;3.10;;
61317;SDS011;47201;40.428;-8.436;2022-09-28T12:17:28;17.73;;;2.65;;
61317;SDS011;47201;40.428;-8.436;2022-09-28T12:21:46;10.80;;;2.63;;
61317;SDS011;47201;40.428;-8.436;2022-09-28T12:23:53;8.40;;;2.20;;
61317;SDS011;47201;40.428;-8.436;2022-09-28T12:26:03;10.80;;;2.50;;
61317;SDS011;47201;40.428;-8.436;2022-09-28T12:28:22;9.02;;;2.50;;
61317;SDS011;47201;40.428;-8.436;2022-09-28T12:30:30;8.23;;;2.55;;
61317;SDS011;47201;40.428;-8.436;2022-09-28T12:32:40;7.45;;;2.63;;
61317;SDS011;47201;40.428;-8.436;2022-09-28T12:34:46;6.28;;;2.05;;
61317;SDS011;47201;40.428;-8.436;2022-09-28T12:38:57;10.70;;;2.33;;
61317;SDS011;47201;40.428;-8.436;2022-09-28T12:50:55;8.23;;;2.33;;
61317;SDS011;47201;40.428;-8.436;2022-09-28T12:53:15;6.10;;;2.13;;
61317;SDS011;47201;40.428;-8.436;2022-09-28T12:55:48;7.03;;;2.30;;
61317;SDS011;47201;40.428;-8.436;2022-09-28T13:00:37;8.10;;;2.55;;
61317;SDS011;47201;40.428;-8.436;2022-09-28T13:02:56;5.22;;;2.33;;
61317;SDS011;47201;40.428;-8.436;2022-09-28T13:10:20;7.35;;;2.38;;
61317;SDS011;47201;40.428;-8.436;2022-09-28T13:15:15;5.15;;;2.45;;
61317;SDS011;47201;40.428;-8.436;2022-09-28T13:19:50;8.30;;;2.05;;
61317;SDS011;47201;40.428;-8.436;2022-09-28T13:24:22;13.68;;;2.63;;
61317;SDS011;47201;40.428;-8.436;2022-09-28T13:26:27;9.82;;;2.42;;
61317;SDS011;47201;40.428;-8.436;2022-09-28T13:28:34;14.07;;;2.40;;
61317;SDS011;47201;40.428;-8.436;2022-09-28T13:30:37;13.95;;;2.70;;
61317;SDS011;47201;40.428;-8.436;2022-09-28T13:32:39;10.05;;;2.58;;
61317;SDS011;47201;40.428;-8.436;2022-09-28T13:34:41;5.93;;;2.00;;
61317;SDS011;47201;40.428;-8.436;2022-09-28T13:39:34;8.30;;;2.22;;
61317;SDS011;47201;40.428;-8.436;2022-09-28T13:41:37;8.77;;;2.65;;
61317;SDS011;47201;40.428;-8.436;2022-09-28T13:48:51;5.90;;;2.30;;
61317;SDS011;47201;40.428;-8.436;2022-09-28T13:55:40;9.57;;;2.70;;
61317;SDS011;47201;40.428;-8.436;2022-09-28T13:57:57;9.95;;;2.85;;
61317;SDS011;47201;40.428;-8.436;2022-09-28T14:11:42;10.93;;;2.85;;
61317;SDS011;47201;40.428;-8.436;2022-09-28T14:18:28;11.63;;;2.47;;
61317;SDS011;47201;40.428;-8.436;2022-09-28T14:20:32;10.95;;;2.50;;
61317;SDS011;47201;40.428;-8.436;2022-09-28T14:22:44;9.60;;;2.40;;
61317;SDS011;47201;40.428;-8.436;2022-09-28T14:27:28;4.60;;;1.70;;
61317;SDS011;47201;40.428;-8.436;2022-09-28T14:30:05;10.18;;;2.30;;
61317;SDS011;47201;40.428;-8.436;2022-09-28T14:32:21;9.05;;;2.67;;
61317;SDS011;47201;40.428;-8.436;2022-09-28T14:34:33;9.10;;;2.65;;
61317;SDS011;47201;40.428;-8.436;2022-09-28T14:36:39;10.13;;;2.17;;
61317;SDS011;47201;40.428;-8.436;2022-09-28T14:39:15;13.55;;;2.88;;
61317;SDS011;47201;40.428;-8.436;2022-09-28T14:41:45;11.18;;;2.90;;
61317;SDS011;47201;40.428;-8.436;2022-09-28T14:45:47;9.20;;;3.03;;
61317;SDS011;47201;40.428;-8.436;2022-09-28T14:48:09;12.52;;;2.90;;
61317;SDS011;47201;40.428;-8.436;2022-09-28T14:52:35;18.23;;;2.80;;
61317;SDS011;47201;40.428;-8.436;2022-09-28T14:54:49;7.47;;;2.50;;
61317;SDS011;47201;40.428;-8.436;2022-09-28T14:58:56;10.75;;;2.45;;
61317;SDS011;47201;40.428;-8.436;2022-09-28T15:01:10;8.80;;;2.38;;
61317;SDS011;47201;40.428;-8.436;2022-09-28T15:05:23;9.50;;;2.33;;
61317;SDS011;47201;40.428;-8.436;2022-09-28T15:07:49;10.98;;;2.28;;
61317;SDS011;47201;40.428;-8.436;2022-09-28T15:09:52;12.57;;;2.38;;
61317;SDS011;47201;40.428;-8.436;2022-09-28T15:12:00;7.60;;;1.95;;
61317;SDS011;47201;40.428;-8.436;2022-09-28T15:14:05;3.92;;;1.88;;
61317;SDS011;47201;40.428;-8.436;2022-09-28T15:16:08;9.68;;;2.40;;
61317;SDS011;47201;40.428;-8.436;2022-09-28T15:20:22;8.02;;;2.22;;
61317;SDS011;47201;40.428;-8.436;2022-09-28T15:22:24;11.88;;;2.40;;
61317;SDS011;47201;40.428;-8.436;2022-09-28T15:24:27;4.43;;;1.58;;
61317;SDS011;47201;40.428;-8.436;2022-09-28T15:26:31;7.20;;;1.25;;